createdAt,value
2022-08-03T00:01:19.961Z,98660.94
2022-08-03T00:04:00.503Z,98645.78
2022-08-03T00:06:38.713Z,98660.41
2022-08-03T00:09:16.943Z,98668.06
2022-08-03T00:11:49.298Z,98668.44
2022-08-03T00:14:27.173Z,98646.84
2022-08-03T00:17:01.236Z,98674.41
2022-08-03T00:19:36.428Z,98665.09
2022-08-03T00:22:19.615Z,98660.06
2022-08-03T00:25:02.637Z,98651.13
2022-08-03T00:27:33.418Z,98662.75
2022-08-03T00:30:15.236Z,98645.06
2022-08-03T00:33:08.679Z,98648.31
2022-08-03T00:35:50.613Z,98657.59
2022-08-03T00:38:22.120Z,98656.91
2022-08-03T00:40:52.944Z,98655.31
2022-08-03T00:43:31.786Z,98658.06
2022-08-03T00:46:01.065Z,98655.19
2022-08-03T00:48:37.446Z,98642.53
2022-08-03T00:51:24.112Z,98662.56
2022-08-03T00:54:01.770Z,98661.31
2022-08-03T00:56:34.151Z,98674.38
2022-08-03T00:59:05.061Z,98678.09
2022-08-03T01:01:45.205Z,98674.94
2022-08-03T01:04:20.142Z,98680.44
2022-08-03T01:07:22.486Z,98683.44
2022-08-03T01:10:25.679Z,98686.13
2022-08-03T01:13:13.927Z,98681.16
2022-08-03T01:16:35.934Z,98689.44
2022-08-03T01:19:54.564Z,98679.72
2022-08-03T01:23:05.289Z,98675.31
2022-08-03T01:26:18.815Z,98671.44
2022-08-03T01:29:40.785Z,98671.09
2022-08-03T01:32:59.657Z,98655.16
2022-08-03T01:35:52.036Z,98657.72
2022-08-03T01:38:28.164Z,98675.53
2022-08-03T01:41:05.644Z,98664.81
2022-08-03T01:44:26.792Z,98660.84
2022-08-03T01:46:37.480Z,98658.88
2022-08-03T01:49:15.137Z,98657.25
2022-08-03T01:51:58.662Z,98657.13
2022-08-03T01:54:46.747Z,98651.88
2022-08-03T02:00:14.377Z,98649.97
2022-08-03T02:02:56.356Z,98656.06
2022-08-03T02:05:42.697Z,98652.09
2022-08-03T02:08:21.673Z,98659.22
2022-08-03T02:11:07.320Z,98653.06
2022-08-03T02:13:44.095Z,98651.19
2022-08-03T02:16:30.708Z,98646.88
2022-08-03T02:19:01.824Z,98644.66
2022-08-03T02:21:56.849Z,98647.44
2022-08-03T02:24:41.894Z,98640.34
2022-08-03T02:27:22.810Z,98653.47
2022-08-03T02:30:05.261Z,98637.91
2022-08-03T02:32:43.221Z,98654.66
2022-08-03T02:35:15.169Z,98658.63
2022-08-03T02:37:56.876Z,98646.25
2022-08-03T02:40:41.862Z,98641.38
2022-08-03T02:43:17.504Z,98656.53
2022-08-03T02:45:52.771Z,98657.56
2022-08-03T02:48:41.350Z,98654.06
2022-08-03T02:51:12.373Z,98652.03
2022-08-03T02:53:51.751Z,98652.34
2022-08-03T02:56:23.949Z,98651.19
2022-08-03T02:58:54.724Z,98658.06
2022-08-03T03:01:28.554Z,98659.66
2022-08-03T03:04:08.758Z,98651.88
2022-08-03T03:06:41.655Z,98639.88
2022-08-03T03:09:20.917Z,98663.03
2022-08-03T03:12:00.950Z,98667.63
2022-08-03T03:14:40.924Z,98656.31
2022-08-03T03:17:33.694Z,98660.16
2022-08-03T03:20:30.085Z,98650.59
2022-08-03T03:23:02.315Z,98664.28
2022-08-03T03:25:37.425Z,98664.28
2022-08-03T03:28:16.825Z,98673.38
2022-08-03T03:30:53.153Z,98650.44
2022-08-03T03:33:31.504Z,98663.53
2022-08-03T03:36:04.690Z,98661.19
2022-08-03T03:38:38.990Z,98654.56
2022-08-03T03:41:09.306Z,98667.03
2022-08-03T03:43:38.590Z,98660.44
2022-08-03T03:46:10.616Z,98661.66
2022-08-03T03:48:51.610Z,98608.22
2022-08-03T03:51:29.639Z,98664.91
2022-08-03T03:54:15.183Z,98674.81
2022-08-03T03:57:01.001Z,98674.69
2022-08-03T03:59:29.928Z,98677.25
2022-08-03T04:02:09.309Z,98679.72
2022-08-03T04:04:59.511Z,98684.00
2022-08-03T04:07:45.286Z,98686.22
2022-08-03T04:10:42.467Z,98683.16
2022-08-03T04:13:28.247Z,98683.97
2022-08-03T04:16:11.223Z,98687.34
2022-08-03T04:18:54.738Z,98692.22
2022-08-03T04:21:34.759Z,98689.91
2022-08-03T04:24:13.681Z,98699.00
2022-08-03T04:26:52.635Z,98696.91
2022-08-03T04:29:35.650Z,98701.44
2022-08-03T04:32:10.571Z,98710.97
2022-08-03T04:34:50.219Z,98699.22
2022-08-03T04:37:45.545Z,98707.53
2022-08-03T04:40:29.849Z,98714.31
2022-08-03T04:43:02.089Z,98710.59
2022-08-03T04:45:39.728Z,98709.53
2022-08-03T04:48:16.259Z,98714.66
2022-08-03T04:51:00.281Z,98714.78
2022-08-03T04:53:45.641Z,98722.72
2022-08-03T04:56:16.241Z,98709.91
2022-08-03T04:58:55.538Z,98714.22
2022-08-03T05:01:26.317Z,98722.75
2022-08-03T05:03:57.594Z,98725.91
2022-08-03T05:06:32.799Z,98726.03
2022-08-03T05:09:10.799Z,98736.03
2022-08-03T05:11:42.247Z,98715.75
2022-08-03T05:14:13.864Z,98711.09
2022-08-03T05:16:45.980Z,98725.41
2022-08-03T05:19:20.859Z,98723.16
2022-08-03T05:22:00.564Z,98722.63
2022-08-03T05:24:54.096Z,98724.91
2022-08-03T05:27:26.356Z,98727.97
2022-08-03T05:30:30.867Z,98727.09
2022-08-03T05:32:57.469Z,98715.88
2022-08-03T05:36:02.252Z,98724.59
2022-08-03T05:38:28.813Z,98727.03
2022-08-03T05:41:23.452Z,98735.19
2022-08-03T05:44:03.808Z,98728.63
2022-08-03T05:46:42.752Z,98722.44
2022-08-03T05:49:20.489Z,98724.66
2022-08-03T05:52:09.324Z,98718.09
2022-08-03T05:54:56.340Z,98709.81
2022-08-03T05:57:33.590Z,98718.44
2022-08-03T06:00:12.819Z,98719.63
2022-08-03T06:02:54.899Z,98716.38
2022-08-03T06:05:27.310Z,98712.94
2022-08-03T06:08:03.082Z,98659.97
2022-08-03T06:10:42.759Z,98718.34
2022-08-03T06:13:15.921Z,98722.94
2022-08-03T06:15:50.791Z,98725.16
2022-08-03T06:18:23.234Z,98715.47
2022-08-03T06:21:13.993Z,98723.91
2022-08-03T06:23:53.851Z,98720.88
2022-08-03T06:26:30.580Z,98716.19
2022-08-03T06:29:04.356Z,98711.63
2022-08-03T06:31:35.536Z,98712.78
2022-08-03T06:34:33.480Z,98716.09
2022-08-03T06:37:06.197Z,98711.84
2022-08-03T06:39:39.811Z,98714.03
2022-08-03T06:42:11.093Z,98726.22
2022-08-03T06:44:45.067Z,98732.06
2022-08-03T06:47:21.571Z,98723.47
2022-08-03T06:50:12.747Z,98715.34
2022-08-03T06:52:44.335Z,98729.09
2022-08-03T06:55:15.378Z,98728.97
2022-08-03T06:57:59.779Z,98723.19
2022-08-03T07:00:40.338Z,98732.09
2022-08-03T07:03:17.465Z,98724.09
2022-08-03T07:05:58.076Z,98726.53
2022-08-03T07:08:33.552Z,98723.53
2022-08-03T07:11:05.449Z,98720.97
2022-08-03T07:13:35.717Z,98730.44
2022-08-03T07:16:09.636Z,98734.06
2022-08-03T07:18:46.562Z,98731.38
2022-08-03T07:21:18.162Z,98724.59
2022-08-03T07:23:54.266Z,98720.31
2022-08-03T07:26:29.036Z,98709.88
2022-08-03T07:29:03.099Z,98719.66
2022-08-03T07:31:36.943Z,98718.03
2022-08-03T07:34:13.418Z,98709.34
2022-08-03T07:36:48.752Z,98708.28
2022-08-03T07:39:20.073Z,98706.75
2022-08-03T07:41:54.667Z,98702.00
2022-08-03T07:44:26.500Z,98703.66
2022-08-03T07:46:57.416Z,98699.78
2022-08-03T07:49:32.796Z,98705.53
2022-08-03T07:52:20.579Z,98691.22
2022-08-03T07:55:00.961Z,98690.72
2022-08-03T07:57:31.960Z,98689.56
2022-08-03T08:00:16.736Z,98683.28
2022-08-03T08:02:47.498Z,98684.00
2022-08-03T08:05:22.684Z,98663.72
2022-08-03T08:07:53.704Z,98686.75
2022-08-03T08:10:24.874Z,98679.69
2022-08-03T08:12:55.512Z,98682.78
2022-08-03T08:15:35.163Z,98680.22
2022-08-03T08:18:18.701Z,98682.19
2022-08-03T08:21:02.697Z,98675.09
2022-08-03T08:23:44.205Z,98684.78
2022-08-03T08:26:15.391Z,98673.22
2022-08-03T08:28:47.375Z,98621.03
2022-08-03T08:31:18.970Z,98677.44
2022-08-03T08:34:03.698Z,98674.19
2022-08-03T08:36:35.636Z,98677.97
2022-08-03T08:39:05.154Z,98671.19
2022-08-03T08:41:49.633Z,98674.84
2022-08-03T08:44:25.003Z,98671.59
2022-08-03T08:47:09.183Z,98671.59
2022-08-03T08:50:04.062Z,98671.22
2022-08-03T08:53:09.916Z,98664.72
2022-08-03T08:55:58.748Z,98607.25
2022-08-03T08:58:38.992Z,98657.84
2022-08-03T09:01:23.136Z,98663.50
2022-08-03T09:04:05.519Z,98658.63
2022-08-03T09:06:53.862Z,98649.66
2022-08-03T09:10:10.948Z,98656.16
2022-08-03T09:12:41.944Z,98651.59
2022-08-03T09:18:11.004Z,98643.16
2022-08-03T09:20:55.996Z,98636.69
2022-08-03T09:23:51.408Z,98633.84
2022-08-03T09:26:37.762Z,98639.03
2022-08-03T09:29:15.193Z,98638.28
2022-08-03T09:31:48.423Z,98639.91
2022-08-03T09:34:22.135Z,98628.59
2022-08-03T09:37:04.239Z,98639.53
2022-08-03T09:39:43.886Z,98630.19
2022-08-03T09:42:26.792Z,98636.56
2022-08-03T09:45:01.813Z,98625.03
2022-08-03T09:47:44.632Z,98625.22
2022-08-03T09:50:24.739Z,98612.69
2022-08-03T09:52:57.538Z,98618.56
2022-08-03T09:56:32.995Z,98616.03
2022-08-03T09:58:25.936Z,98615.56
2022-08-03T10:01:23.890Z,98615.78
2022-08-03T10:04:07.629Z,98615.66
2022-08-03T10:06:47.140Z,98603.81
2022-08-03T10:09:18.083Z,98609.50
2022-08-03T10:11:50.350Z,98594.59
2022-08-03T10:14:33.352Z,98603.00
2022-08-03T10:17:06.502Z,98602.94
2022-08-03T10:19:41.048Z,98606.53
2022-08-03T10:22:27.016Z,98600.72
2022-08-03T10:25:19.062Z,98585.28
2022-08-03T10:28:00.750Z,98592.00
2022-08-03T10:30:33.176Z,98581.25
2022-08-03T10:33:49.841Z,98589.56
2022-08-03T10:36:20.086Z,98576.28
2022-08-03T10:39:15.945Z,98580.38
2022-08-03T10:41:48.384Z,98577.00
2022-08-03T10:44:20.388Z,98584.84
2022-08-03T10:47:01.151Z,98581.50
2022-08-03T10:49:35.704Z,98554.34
2022-08-03T10:52:13.339Z,98573.34
2022-08-03T10:55:23.549Z,98565.41
2022-08-03T10:57:59.150Z,98565.34
2022-08-03T11:00:41.854Z,98559.34
2022-08-03T11:03:14.721Z,98522.81
2022-08-03T11:05:53.606Z,98565.38
2022-08-03T11:08:40.186Z,98553.94
2022-08-03T11:11:34.793Z,98548.72
2022-08-03T11:14:15.716Z,98552.13
2022-08-03T11:16:59.999Z,98553.06
2022-08-03T11:19:56.851Z,98543.78
2022-08-03T11:23:03.812Z,98546.75
2022-08-03T11:26:19.326Z,98550.72
2022-08-03T11:29:05.369Z,98536.50
2022-08-03T11:31:51.639Z,98533.22
2022-08-03T11:34:26.767Z,98528.22
2022-08-03T11:37:31.544Z,98518.59
2022-08-03T11:40:13.949Z,98527.97
2022-08-03T11:42:49.033Z,98522.59
2022-08-03T11:45:22.704Z,98518.94
2022-08-03T11:47:54.445Z,98515.28
2022-08-03T11:50:25.417Z,98513.41
2022-08-03T11:52:56.385Z,98511.22
2022-08-03T11:55:30.550Z,98503.25
2022-08-03T11:59:15.213Z,98483.78
2022-08-03T12:01:21.224Z,98506.03
2022-08-03T12:03:57.928Z,98506.13
2022-08-03T12:06:32.487Z,98504.72
2022-08-03T12:09:06.327Z,98487.53
2022-08-03T12:11:37.036Z,98496.78
2022-08-03T12:14:48.577Z,98472.91
2022-08-03T12:17:24.006Z,98487.09
2022-08-03T12:19:54.481Z,98477.53
2022-08-03T12:22:42.925Z,98486.38
2022-08-03T12:25:39.141Z,98478.34
2022-08-03T12:28:37.491Z,98490.00
2022-08-03T12:31:23.663Z,98486.97
2022-08-03T12:34:05.901Z,98479.28
2022-08-03T12:36:46.423Z,98472.53
2022-08-03T12:39:30.752Z,98455.09
2022-08-03T12:42:16.068Z,98431.97
2022-08-03T12:44:48.935Z,98466.25
2022-08-03T12:48:02.033Z,98466.16
2022-08-03T12:50:41.335Z,98461.44
2022-08-03T12:53:32.365Z,98464.47
2022-08-03T12:56:09.598Z,98457.16
2022-08-03T12:58:47.492Z,98456.25
2022-08-03T13:01:23.383Z,98456.34
2022-08-03T13:03:54.981Z,98457.16
2022-08-03T13:06:25.958Z,98450.28
2022-08-03T13:09:19.932Z,98451.13
2022-08-03T13:12:23.155Z,98447.19
2022-08-03T13:15:06.318Z,98450.22
2022-08-03T13:17:44.174Z,98443.84
2022-08-03T13:20:15.127Z,98433.84
2022-08-03T13:22:45.831Z,98430.47
2022-08-03T13:25:17.396Z,98441.72
2022-08-03T13:28:03.721Z,98438.47
2022-08-03T13:30:44.314Z,98428.88
2022-08-03T13:33:18.995Z,98433.75
2022-08-03T13:35:59.163Z,98435.59
2022-08-03T13:38:34.748Z,98431.09
2022-08-03T13:41:05.037Z,98430.88
2022-08-03T13:43:40.228Z,98417.88
2022-08-03T13:49:10.704Z,98422.59
2022-08-03T13:51:42.136Z,98420.25
2022-08-03T13:54:25.742Z,98425.09
2022-08-03T13:58:01.190Z,98424.16
2022-08-03T13:59:56.340Z,98415.03
2022-08-03T14:02:30.459Z,98413.03
2022-08-03T14:05:01.192Z,98402.34
2022-08-03T14:07:30.414Z,98396.63
2022-08-03T14:09:59.559Z,98407.25
2022-08-03T14:12:29.659Z,98397.31
2022-08-03T14:15:16.088Z,98404.53
2022-08-03T14:17:49.866Z,98394.28
2022-08-03T14:20:36.669Z,98398.84
2022-08-03T14:23:11.690Z,98386.91
2022-08-03T14:25:55.052Z,98393.56
2022-08-03T14:28:34.197Z,98391.72
2022-08-03T14:32:09.939Z,98386.22
2022-08-03T14:34:15.215Z,98392.31
2022-08-03T14:36:50.358Z,98399.28
2022-08-03T14:42:43.165Z,98389.00
2022-08-03T14:45:31.592Z,98385.50
2022-08-03T14:50:34.819Z,98375.56
2022-08-03T14:51:06.199Z,98383.50
2022-08-03T14:53:37.008Z,98379.78
2022-08-03T14:56:11.059Z,98372.94
2022-08-03T14:58:51.250Z,98376.50
2022-08-03T15:02:05.073Z,98369.03
2022-08-03T15:04:16.983Z,98357.34
2022-08-03T15:06:51.431Z,98321.44
2022-08-03T15:09:25.479Z,98363.22
2022-08-03T15:11:56.569Z,98363.75
2022-08-03T15:14:33.165Z,98361.25
2022-08-03T15:17:10.857Z,98364.56
2022-08-03T15:20:02.236Z,98355.69
2022-08-03T15:22:45.418Z,98342.44
2022-08-03T15:26:03.612Z,98352.28
2022-08-03T15:28:09.083Z,98353.50
2022-08-03T15:30:40.412Z,98341.84
2022-08-03T15:33:12.954Z,98340.22
2022-08-03T15:35:44.161Z,98349.41
2022-08-03T15:38:15.852Z,98348.56
2022-08-03T15:40:46.992Z,98323.94
2022-08-03T15:43:21.514Z,98338.78
2022-08-03T15:46:12.793Z,98339.13
2022-08-03T15:48:47.167Z,98322.31
2022-08-03T15:51:24.072Z,98323.31
2022-08-03T15:53:54.690Z,98329.59
2022-08-03T15:56:28.817Z,98325.63
2022-08-03T15:59:11.843Z,98322.69
2022-08-03T16:01:45.295Z,98318.75
2022-08-03T16:04:29.612Z,98310.59
2022-08-03T16:07:14.198Z,98323.25
2022-08-03T16:09:46.013Z,98314.50
2022-08-03T16:12:23.623Z,98314.34
2022-08-03T16:14:58.310Z,98292.16
2022-08-03T16:17:36.876Z,98315.09
2022-08-03T16:20:31.686Z,98304.06
2022-08-03T16:23:14.093Z,98299.91
2022-08-03T16:25:49.122Z,98314.22
2022-08-03T16:28:21.905Z,98309.13
2022-08-03T16:31:01.308Z,98313.66
2022-08-03T16:33:30.408Z,98320.28
2022-08-03T16:36:14.828Z,98315.88
2022-08-03T16:38:59.606Z,98312.38
2022-08-03T16:41:54.414Z,98303.59
2022-08-03T16:44:29.017Z,98310.28
2022-08-03T16:46:59.007Z,98301.22
2022-08-03T16:49:53.890Z,98313.63
2022-08-03T16:52:23.903Z,98308.16
2022-08-03T16:55:05.094Z,98306.25
2022-08-03T16:57:59.734Z,98315.31
2022-08-03T17:00:41.448Z,98292.53
2022-08-03T17:03:20.531Z,98306.91
2022-08-03T17:06:00.111Z,98299.47
2022-08-03T17:08:37.805Z,98315.50
2022-08-03T17:11:15.079Z,98312.16
2022-08-03T17:13:55.878Z,98310.78
2022-08-03T17:16:24.453Z,98314.75
2022-08-03T17:19:01.897Z,98322.81
2022-08-03T17:21:39.341Z,98324.25
2022-08-03T17:24:23.421Z,98318.97
2022-08-03T17:27:08.581Z,98324.69
2022-08-03T17:29:45.238Z,98320.31
2022-08-03T17:32:23.359Z,98324.13
2022-08-03T17:34:58.889Z,98327.28
2022-08-03T17:37:57.440Z,98330.47
2022-08-03T17:40:28.906Z,98324.41
2022-08-03T17:44:08.196Z,98330.50
2022-08-03T17:46:00.502Z,98342.13
2022-08-03T17:48:42.084Z,98335.09
2022-08-03T17:51:31.819Z,98347.63
2022-08-03T17:54:23.596Z,98341.25
2022-08-03T17:57:26.491Z,98348.25
2022-08-03T18:00:29.956Z,98346.44
2022-08-03T18:03:26.284Z,98347.06
2022-08-03T18:06:10.900Z,98354.84
2022-08-03T18:08:49.651Z,98355.78
2022-08-03T18:11:23.645Z,98342.63
2022-08-03T18:14:29.199Z,98352.06
2022-08-03T18:17:10.269Z,98352.94
2022-08-03T18:20:01.949Z,98347.56
2022-08-03T18:22:37.375Z,98359.81
2022-08-03T18:25:13.268Z,98337.28
2022-08-03T18:27:47.479Z,98358.94
2022-08-03T18:30:17.290Z,98363.00
2022-08-03T18:33:00.393Z,98361.09
2022-08-03T18:38:27.575Z,98362.88
2022-08-03T18:41:01.246Z,98366.53
2022-08-03T18:43:46.375Z,98370.19
2022-08-03T18:47:07.501Z,98370.69
2022-08-03T18:50:13.525Z,98367.00
2022-08-03T18:53:15.646Z,98370.75
2022-08-03T18:56:35.314Z,98379.34
2022-08-03T18:59:30.075Z,98375.81
2022-08-03T19:02:12.749Z,98380.19
2022-08-03T19:04:58.363Z,98385.91
2022-08-03T19:07:38.161Z,98386.28
2022-08-03T19:10:15.857Z,98377.88
2022-08-03T19:12:55.951Z,98402.97
2022-08-03T19:15:51.270Z,98396.53
2022-08-03T19:18:30.919Z,98393.31
2022-08-03T19:21:05.662Z,98390.88
2022-08-03T19:23:49.983Z,98399.78
2022-08-03T19:26:30.400Z,98407.88
2022-08-03T19:29:06.105Z,98407.88
2022-08-03T19:31:59.800Z,98410.78
2022-08-03T19:34:37.572Z,98416.81
2022-08-03T19:37:17.596Z,98417.63
2022-08-03T19:40:00.715Z,98421.66
2022-08-03T19:42:48.872Z,98409.56
2022-08-03T19:46:04.831Z,98428.91
2022-08-03T19:48:50.104Z,98413.94
2022-08-03T19:51:58.546Z,98419.91
2022-08-03T19:57:16.042Z,98423.69
2022-08-03T19:59:54.673Z,98434.66
2022-08-03T20:02:29.842Z,98431.03
2022-08-03T20:05:02.436Z,98439.47
2022-08-03T20:07:47.903Z,98444.25
2022-08-03T20:10:32.260Z,98421.53
2022-08-03T20:13:07.897Z,98432.03
2022-08-03T20:15:55.265Z,98443.28
2022-08-03T20:18:28.088Z,98441.50
2022-08-03T20:24:23.667Z,98450.50
2022-08-03T20:27:12.509Z,98452.16
2022-08-03T20:30:07.250Z,98460.94
2022-08-03T20:32:47.450Z,98467.38
2022-08-03T20:35:21.386Z,98460.97
2022-08-03T20:37:55.780Z,98465.03
2022-08-03T20:40:37.001Z,98469.06
2022-08-03T20:43:08.098Z,98453.28
2022-08-03T20:45:59.013Z,98461.19
2022-08-03T20:48:49.556Z,98472.22
2022-08-03T20:51:31.972Z,98465.78
2022-08-03T20:54:22.730Z,98464.56
2022-08-03T20:57:07.014Z,98468.66
2022-08-03T20:59:50.534Z,98463.31
2022-08-03T21:02:31.310Z,98468.72
2022-08-03T21:05:09.410Z,98472.09
2022-08-03T21:08:04.021Z,98473.78
2022-08-03T21:10:39.710Z,98476.47
2022-08-03T21:12:58.523Z,98358.06
2022-08-03T21:13:03.879Z,98441.78
2022-08-03T21:16:44.773Z,98479.41
2022-08-03T21:19:51.946Z,98483.88
2022-08-03T21:22:27.891Z,98493.09
2022-08-03T21:25:00.309Z,98482.97
2022-08-03T21:27:33.146Z,98495.19
2022-08-03T21:30:05.997Z,98494.09
2022-08-03T21:32:41.143Z,98498.66
2022-08-03T21:35:20.669Z,98496.34
2022-08-03T21:38:15.337Z,98488.06
2022-08-03T21:43:25.142Z,98506.13
2022-08-03T21:46:09.713Z,98505.25
2022-08-03T21:48:49.191Z,98501.53
2022-08-03T21:51:20.534Z,98491.88
2022-08-03T21:54:04.719Z,98500.22
2022-08-03T21:56:38.614Z,98500.72
2022-08-03T21:59:18.778Z,98499.19
2022-08-03T22:01:51.472Z,98488.53
2022-08-03T22:04:50.070Z,98513.50
2022-08-03T22:07:22.128Z,98511.41
2022-08-03T22:09:56.185Z,98503.88
2022-08-03T22:12:34.572Z,98521.69
2022-08-03T22:15:19.271Z,98524.47
2022-08-03T22:18:02.158Z,98523.88
2022-08-03T22:20:42.614Z,98530.28
2022-08-03T22:23:23.461Z,98527.25
2022-08-03T22:25:55.468Z,98534.75
2022-08-03T22:28:37.290Z,98532.50
2022-08-03T22:31:30.997Z,98540.56
2022-08-03T22:34:08.131Z,98539.91
2022-08-03T22:36:44.737Z,98536.34
2022-08-03T22:39:25.623Z,98545.38
2022-08-03T22:41:56.605Z,98544.84
2022-08-03T22:44:27.849Z,98556.44
2022-08-03T22:46:56.579Z,98556.50
2022-08-03T22:49:36.714Z,98559.56
2022-08-03T22:52:16.614Z,98558.81
2022-08-03T22:54:53.406Z,98568.28
2022-08-03T22:57:30.154Z,98561.63
2022-08-03T23:00:12.659Z,98567.84
2022-08-03T23:02:49.782Z,98569.84
2022-08-03T23:06:00.956Z,98569.31
2022-08-03T23:08:35.074Z,98573.13
2022-08-03T23:11:12.710Z,98559.81
2022-08-03T23:13:49.474Z,98570.56
2022-08-03T23:16:29.576Z,98568.28
2022-08-03T23:19:16.368Z,98568.13
2022-08-03T23:22:02.371Z,98567.59
2022-08-03T23:24:39.299Z,98576.09
2022-08-03T23:27:10.753Z,98558.44
2022-08-03T23:29:44.253Z,98576.09
2022-08-03T23:32:15.425Z,98558.88
2022-08-03T23:35:12.735Z,98559.19
2022-08-03T23:38:04.240Z,98572.28
2022-08-03T23:40:46.045Z,98572.34
2022-08-03T23:43:51.280Z,98566.59
2022-08-03T23:46:21.696Z,98569.47
2022-08-03T23:48:57.008Z,98575.81
2022-08-03T23:51:49.446Z,98565.59
2022-08-03T23:58:21.012Z,98571.66
